Time;durP1;ratioP1;P1;durP2;ratioP2;P2;SDS_P1;SDS_P2;PMS_P1;PMS_P2;Temp;Humidity;BMP_temperature;BMP_pressure;BME280_temperature;BME280_humidity;BME280_pressure;Samples;Min_cycle;Max_cycle;Signal;HPM_P1;HPM_P2
2023/09/01 00:01:33;;;;;;;;;;;;;;;13.10;47.49;95243.38;4955587;28;19998;-70
2023/09/01 00:03:58;;;;;;;;;;;;;;;13.04;47.39;95245.84;4942530;28;20239;-71
2023/09/01 00:06:24;;;;;;;;;;;;;;;13.12;47.13;95244.81;4955913;28;20485;-71
2023/09/01 00:08:49;;;;;;;;;;;;;;;13.08;47.52;95237.41;4955159;28;20482;-70
2023/09/01 00:11:14;;;;;;;;;;;;;;;13.04;47.41;95239.66;4955346;28;19969;-70
2023/09/01 00:13:39;;;;;;;;;;;;;;;13.08;47.83;95232.06;4956109;28;20001;-70
2023/09/01 00:16:05;;;;;;;;;;;;;;;13.12;47.31;95225.28;4955275;28;20204;-70
2023/09/01 00:18:30;;;;;;;;;;;;;;;13.12;47.25;95225.28;4954248;28;20029;-71
2023/09/01 00:20:59;;;;;;;;;;;;;;;13.10;47.69;95219.31;4955203;28;20215;-70
2023/09/01 00:23:24;;;;;;;;;;;;;;;13.14;47.89;95226.72;4953326;28;19935;-70
2023/09/01 00:25:53;;;;;;;;;;;;;;;13.17;47.20;95217.47;4955640;28;19932;-70
2023/09/01 00:28:18;;;;;;;;;;;;;;;13.19;47.56;95220.75;4955308;28;19965;-70
2023/09/01 00:30:51;;;;;;;;;;;;;;;13.21;47.43;95226.72;4955538;28;20443;-69
2023/09/01 00:33:16;;;;;;;;;;;;;;;13.24;47.63;95220.16;4955307;28;19936;-70
2023/09/01 00:35:41;;;;;;;;;;;;;;;13.26;47.70;95218.91;4954649;28;19958;-70
2023/09/01 00:38:06;;;;;;;;;;;;;;;13.29;47.64;95221.19;4954634;28;20021;-70
2023/09/01 00:40:32;;;;;;;;;;;;;;;13.28;47.94;95213.34;4955127;28;19957;-69
2023/09/01 00:42:57;;;;;;;;;;;;;;;13.25;48.04;95214.59;4955578;28;20258;-70
2023/09/01 00:45:22;;;;;;;;;;;;;;;13.30;47.81;95212.13;4955098;28;19997;-70
2023/09/01 00:47:47;;;;;;;;;;;;;;;13.30;47.64;95212.13;4951598;28;20445;-70
2023/09/01 00:50:13;;;;;;;;;;;;;;;13.28;48.04;95213.34;4955315;28;19960;-70
2023/09/01 00:52:38;;;;;;;;;;;;;;;13.23;47.86;95218.50;4952115;28;20382;-70
2023/09/01 00:55:03;;;;;;;;;;;;;;;13.26;48.26;95210.88;4955301;28;19948;-70
2023/09/01 00:57:28;;;;;;;;;;;;;;;13.27;47.40;95204.53;4952881;28;20264;-70
2023/09/01 00:59:54;;;;;;;;;;;;;;;13.23;48.80;95205.16;4954728;28;19930;-70
2023/09/01 01:02:19;;;;;;;;;;;;;;;13.23;47.50;95195.28;4954583;28;19954;-71
2023/09/01 01:04:44;;;;;;;;;;;;;;;13.22;49.49;95204.31;4988878;22;20023;-68
2023/09/01 01:07:20;;;;;;;;;;;;;;;13.13;48.92;95213.56;4976862;28;19974;-68
2023/09/01 01:09:45;;;;;;;;;;;;;;;13.03;49.68;95220.13;4975843;28;19930;-68
2023/09/01 01:12:20;;;;;;;;;;;;;;;13.08;48.44;95210.69;4976570;28;20026;-68
2023/09/01 01:14:46;;;;;;;;;;;;;;;13.20;48.05;95216.25;4979766;28;19933;-68
2023/09/01 01:17:12;;;;;;;;;;;;;;;13.27;48.12;95212.56;4975312;28;19944;-68
2023/09/01 01:19:41;;;;;;;;;;;;;;;13.21;48.04;95201.84;4973935;28;20012;-68
2023/09/01 01:22:06;;;;;;;;;;;;;;;13.28;48.16;95197.31;4977008;28;19913;-68
2023/09/01 01:24:33;;;;;;;;;;;;;;;13.23;48.26;95197.97;4975228;28;19976;-68
2023/09/01 01:26:58;;;;;;;;;;;;;;;13.21;47.71;95207.19;4976859;28;20035;-68
2023/09/01 01:29:25;;;;;;;;;;;;;;;13.22;48.08;95203.50;4976525;28;19957;-68
2023/09/01 01:31:52;;;;;;;;;;;;;;;13.25;47.43;95197.72;4969912;28;19958;-68
2023/09/01 01:34:19;;;;;;;;;;;;;;;13.28;48.14;95202.66;4968405;28;19999;-68
2023/09/01 01:37:05;;;;;;;;;;;;;;;13.34;48.08;95198.34;4978944;28;20614;-68
2023/09/01 01:39:31;;;;;;;;;;;;;;;13.25;48.20;95195.06;4973870;28;19963;-68
2023/09/01 01:42:01;;;;;;;;;;;;;;;13.29;47.42;95196.28;4975159;28;19984;-68
2023/09/01 01:44:28;;;;;;;;;;;;;;;13.20;48.67;95193.03;4975098;28;20665;-68
2023/09/01 01:46:53;;;;;;;;;;;;;;;13.12;48.09;95198.56;4974872;28;19922;-68
2023/09/01 01:49:19;;;;;;;;;;;;;;;13.16;48.41;95203.28;4975123;28;20052;-68
2023/09/01 01:51:45;;;;;;;;;;;;;;;13.23;47.72;95205.16;4973163;28;20040;-68
2023/09/01 01:54:10;;;;;;;;;;;;;;;13.19;48.42;95207.38;4974849;28;19956;-68
2023/09/01 01:56:35;;;;;;;;;;;;;;;13.11;48.36;95202.25;4976617;28;20004;-68
2023/09/01 01:59:00;;;;;;;;;;;;;;;13.17;49.47;95207.63;4977605;28;19936;-68
2023/09/01 02:01:26;;;;;;;;;;;;;;;13.19;47.85;95204.72;4974581;28;19922;-68
2023/09/01 02:03:51;;;;;;;;;;;;;;;13.21;48.46;95196.50;4971429;28;20737;-68
2023/09/01 02:06:16;;;;;;;;;;;;;;;13.29;48.24;95206.97;4980500;28;20289;-68
2023/09/01 02:08:42;;;;;;;;;;;;;;;13.23;48.51;95202.47;4979943;28;19956;-68
2023/09/01 02:11:07;;;;;;;;;;;;;;;13.22;47.71;95193.63;4980530;28;20501;-68
2023/09/01 02:13:32;;;;;;;;;;;;;;;13.20;48.65;95189.50;4980367;28;19996;-68
2023/09/01 02:15:57;;;;;;;;;;;;;;;13.28;49.04;95194.66;4979622;28;20045;-68
2023/09/01 02:18:22;;;;;;;;;;;;;;;13.27;49.21;95185.81;4980089;28;20020;-66
2023/09/01 02:20:48;;;;;;;;;;;;;;;13.26;48.05;95194.03;4979889;28;19962;-65
2023/09/01 02:23:16;;;;;;;;;;;;;;;13.31;48.40;95197.75;4980020;28;20388;-67
2023/09/01 02:25:42;;;;;;;;;;;;;;;13.20;49.51;95189.50;4978217;28;20013;-66
2023/09/01 02:28:07;;;;;;;;;;;;;;;13.28;48.41;95197.31;4979658;28;19934;-66
2023/09/01 02:30:33;;;;;;;;;;;;;;;13.26;48.35;95200.19;4979451;28;19968;-66
2023/09/01 02:32:58;;;;;;;;;;;;;;;13.30;48.42;95204.09;4979627;28;20335;-65
2023/09/01 02:35:23;;;;;;;;;;;;;;;13.33;49.42;95205.56;4979250;28;19948;-67
2023/09/01 02:37:51;;;;;;;;;;;;;;;13.20;49.44;95206.38;4980020;28;20687;-65
2023/09/01 02:40:16;;;;;;;;;;;;;;;13.23;49.20;95205.16;4979349;28;20155;-67
2023/09/01 02:42:42;;;;;;;;;;;;;;;13.24;48.69;95199.59;4979928;28;20409;-65
2023/09/01 02:45:09;;;;;;;;;;;;;;;13.26;49.07;95199.41;4978931;28;19968;-67
2023/09/01 02:47:35;;;;;;;;;;;;;;;13.31;48.54;95188.91;4974864;28;19929;-66
2023/09/01 02:50:01;;;;;;;;;;;;;;;13.23;50.46;95189.94;4980118;28;20254;-66
2023/09/01 02:52:27;;;;;;;;;;;;;;;13.15;48.80;95188.28;4977603;28;19953;-66
2023/09/01 02:54:52;;;;;;;;;;;;;;;13.15;48.75;95187.44;4979934;28;19965;-66
2023/09/01 02:57:17;;;;;;;;;;;;;;;13.12;48.67;95186.00;4979421;28;19925;-67
2023/09/01 02:59:43;;;;;;;;;;;;;;;13.18;48.66;95187.03;4978455;28;20014;-66
2023/09/01 03:02:08;;;;;;;;;;;;;;;13.19;48.37;95175.31;4977580;28;20302;-67
2023/09/01 03:04:33;;;;;;;;;;;;;;;13.25;50.03;95192.38;4977584;28;20002;-66
2023/09/01 03:06:59;;;;;;;;;;;;;;;13.27;48.27;95185.81;4979266;28;19968;-67
2023/09/01 03:09:24;;;;;;;;;;;;;;;13.23;48.77;95178.41;4979485;28;20047;-67
2023/09/01 03:11:49;;;;;;;;;;;;;;;13.26;48.78;95178.81;4978225;28;19969;-67
2023/09/01 03:14:14;;;;;;;;;;;;;;;13.24;48.77;95180.06;4978277;28;19973;-66
2023/09/01 03:16:41;;;;;;;;;;;;;;;13.22;49.98;95179.44;4973888;28;19922;-67
2023/09/01 03:19:07;;;;;;;;;;;;;;;13.16;50.57;95191.78;4977518;28;20266;-66
2023/09/01 03:21:32;;;;;;;;;;;;;;;13.20;49.63;95200.19;4978890;28;19952;-67
2023/09/01 03:23:57;;;;;;;;;;;;;;;12.99;49.63;95189.50;4978877;28;19967;-67
2023/09/01 03:26:23;;;;;;;;;;;;;;;13.03;49.47;95193.41;4979168;28;19944;-66
2023/09/01 03:28:49;;;;;;;;;;;;;;;13.18;49.25;95198.56;4979569;28;19956;-67
2023/09/01 03:31:14;;;;;;;;;;;;;;;13.20;49.32;95195.69;4979967;28;20294;-67
2023/09/01 03:33:39;;;;;;;;;;;;;;;13.18;49.02;95198.56;4979704;28;19970;-67
2023/09/01 03:36:07;;;;;;;;;;;;;;;13.23;49.42;95197.13;4979843;28;19960;-67
2023/09/01 03:38:32;;;;;;;;;;;;;;;13.27;51.23;95201.88;4979859;28;19922;-67
2023/09/01 03:41:00;;;;;;;;;;;;;;;13.13;50.62;95194.84;4977009;28;19921;-67
2023/09/01 03:43:25;;;;;;;;;;;;;;;13.17;49.39;95188.91;4978556;28;20012;-68
2023/09/01 03:45:50;;;;;;;;;;;;;;;13.32;49.01;95185.19;4979203;28;19918;-67
2023/09/01 03:48:16;;;;;;;;;;;;;;;13.29;48.07;95185.59;4974079;28;19957;-68
2023/09/01 03:50:41;;;;;;;;;;;;;;;13.31;48.48;95183.56;4979349;28;19921;-67
2023/09/01 03:53:06;;;;;;;;;;;;;;;13.34;50.11;95179.63;4979040;28;19960;-67
2023/09/01 03:55:32;;;;;;;;;;;;;;;13.30;49.21;95177.38;4979662;28;20580;-67
2023/09/01 03:57:59;;;;;;;;;;;;;;;13.33;48.33;95175.31;4978971;28;20627;-67
2023/09/01 04:00:25;;;;;;;;;;;;;;;13.41;49.22;95173.28;4978752;28;19954;-67
2023/09/01 04:02:50;;;;;;;;;;;;;;;13.36;49.58;95167.69;4978595;28;19965;-67
2023/09/01 04:05:15;;;;;;;;;;;;;;;13.30;48.84;95171.22;4978811;28;20334;-68
2023/09/01 04:07:40;;;;;;;;;;;;;;;13.39;48.36;95161.94;4979146;28;20124;-67
2023/09/01 04:10:08;;;;;;;;;;;;;;;13.34;49.35;95169.78;4979349;28;19932;-68
2023/09/01 04:12:34;;;;;;;;;;;;;;;13.48;50.10;95169.75;4978212;28;19936;-68
2023/09/01 04:14:59;;;;;;;;;;;;;;;13.42;49.03;95171.41;4978751;28;19942;-68
2023/09/01 04:17:26;;;;;;;;;;;;;;;13.48;48.61;95167.91;4979232;28;20495;-68
2023/09/01 04:19:52;;;;;;;;;;;;;;;13.41;49.09;95172.44;4978771;28;20028;-68
2023/09/01 04:22:17;;;;;;;;;;;;;;;13.49;48.79;95171.41;4978572;28;20711;-68
2023/09/01 04:24:43;;;;;;;;;;;;;;;13.46;48.69;95177.19;4978798;28;19922;-67
2023/09/01 04:27:08;;;;;;;;;;;;;;;13.50;48.41;95181.88;4978287;28;20014;-67
2023/09/01 04:29:35;;;;;;;;;;;;;;;13.50;48.92;95181.06;4978309;28;19954;-67
2023/09/01 04:32:00;;;;;;;;;;;;;;;13.43;48.53;95179.22;4978772;28;19968;-68
2023/09/01 04:34:26;;;;;;;;;;;;;;;13.50;49.20;95179.22;4978866;28;20674;-68
2023/09/01 04:36:54;;;;;;;;;;;;;;;13.62;48.55;95181.25;4978301;28;20048;-67
2023/09/01 04:39:19;;;;;;;;;;;;;;;13.48;49.28;95180.44;4975660;28;20013;-69
2023/09/01 04:41:45;;;;;;;;;;;;;;;13.27;49.92;95179.66;4968655;28;20524;-68
2023/09/01 04:44:10;;;;;;;;;;;;;;;13.38;49.11;95176.34;4976954;28;20420;-68
2023/09/01 04:46:35;;;;;;;;;;;;;;;13.30;51.14;95181.91;4977614;28;20004;-69
2023/09/01 04:49:01;;;;;;;;;;;;;;;13.26;49.40;95181.47;4973428;28;20075;-69
2023/09/01 04:51:26;;;;;;;;;;;;;;;13.35;49.14;95190.13;4977415;28;19926;-68
2023/09/01 04:53:51;;;;;;;;;;;;;;;13.37;49.12;95185.41;4977923;28;20369;-69
2023/09/01 04:56:16;;;;;;;;;;;;;;;13.50;49.60;95194.44;4977060;28;19992;-69
2023/09/01 04:58:42;;;;;;;;;;;;;;;13.57;48.27;95184.56;4977241;28;19952;-69
2023/09/01 05:01:07;;;;;;;;;;;;;;;13.44;50.46;95185.41;4977240;28;19966;-69
2023/09/01 05:03:32;;;;;;;;;;;;;;;13.42;49.34;95190.13;4966655;28;19973;-68
2023/09/01 05:05:57;;;;;;;;;;;;;;;13.38;49.50;95183.53;4977851;28;19964;-69
2023/09/01 05:08:23;;;;;;;;;;;;;;;13.33;49.62;95186.84;4977221;28;19926;-69
2023/09/01 05:10:48;;;;;;;;;;;;;;;13.37;50.87;95192.59;4977390;28;19968;-69
2023/09/01 05:13:13;;;;;;;;;;;;;;;13.42;49.02;95190.94;4976932;28;19980;-68
2023/09/01 05:15:38;;;;;;;;;;;;;;;13.49;50.67;95193.63;4977231;28;19960;-69
2023/09/01 05:18:04;;;;;;;;;;;;;;;13.27;50.54;95193.00;4974000;28;19921;-69
2023/09/01 05:20:29;;;;;;;;;;;;;;;13.14;51.67;95197.31;4976569;28;20720;-68
2023/09/01 05:22:54;;;;;;;;;;;;;;;12.99;50.28;95194.81;4977610;28;20112;-69
2023/09/01 05:25:20;;;;;;;;;;;;;;;13.23;49.67;95199.78;4977140;28;20648;-69
2023/09/01 05:27:45;;;;;;;;;;;;;;;13.39;50.68;95199.38;4976177;28;20041;-69
2023/09/01 05:30:12;;;;;;;;;;;;;;;13.55;50.71;95202.66;4977388;28;19929;-69
2023/09/01 05:32:37;;;;;;;;;;;;;;;13.52;50.94;95209.25;4976918;28;20298;-69
2023/09/01 05:35:03;;;;;;;;;;;;;;;13.56;48.90;95209.66;4975344;28;19956;-69
2023/09/01 05:37:28;;;;;;;;;;;;;;;13.57;48.71;95206.78;4975973;28;20055;-69
2023/09/01 05:39:55;;;;;;;;;;;;;;;13.20;50.83;95195.69;4975962;28;19948;-69
2023/09/01 05:42:20;;;;;;;;;;;;;;;13.39;50.66;95194.03;4976496;28;19960;-69
2023/09/01 05:44:45;;;;;;;;;;;;;;;13.54;49.55;95190.31;4975430;28;19976;-69
2023/09/01 05:47:11;;;;;;;;;;;;;;;13.57;49.72;95187.25;4976167;28;19966;-69
2023/09/01 05:49:36;;;;;;;;;;;;;;;13.50;50.30;95199.78;4976809;28;19998;-67
2023/09/01 05:52:01;;;;;;;;;;;;;;;13.52;51.77;95201.22;4977176;28;20493;-67
2023/09/01 05:54:26;;;;;;;;;;;;;;;13.56;51.36;95198.94;4976978;28;20453;-67
2023/09/01 05:56:52;;;;;;;;;;;;;;;13.64;50.71;95203.28;4976274;28;19965;-67
2023/09/01 05:59:17;;;;;;;;;;;;;;;13.29;52.71;95215.00;4975122;28;19980;-67
2023/09/01 06:01:42;;;;;;;;;;;;;;;11.87;56.98;95220.66;4974559;28;19969;-67
2023/09/01 06:04:08;;;;;;;;;;;;;;;12.89;54.63;95205.88;4976175;28;20012;-67
2023/09/01 06:06:34;;;;;;;;;;;;;;;13.30;52.19;95212.13;4970723;28;20393;-67
2023/09/01 06:08:59;;;;;;;;;;;;;;;13.60;49.51;95199.38;4976819;28;20036;-68
2023/09/01 06:11:24;;;;;;;;;;;;;;;13.79;49.45;95201.19;4975487;28;20032;-67
2023/09/01 06:13:50;;;;;;;;;;;;;;;13.77;49.68;95199.75;4975779;28;20357;-67
2023/09/01 06:16:15;;;;;;;;;;;;;;;13.66;52.00;95204.72;4974589;28;20490;-67
2023/09/01 06:18:40;;;;;;;;;;;;;;;13.45;52.28;95211.09;4976473;28;20025;-66
2023/09/01 06:21:05;;;;;;;;;;;;;;;13.76;51.81;95206.13;4973225;28;19933;-66
2023/09/01 06:23:31;;;;;;;;;;;;;;;13.95;50.45;95210.63;4976695;28;19934;-67
2023/09/01 06:25:56;;;;;;;;;;;;;;;14.06;48.06;95211.03;4974575;28;19922;-67
2023/09/01 06:28:21;;;;;;;;;;;;;;;14.30;49.58;95208.69;4976225;28;20013;-67
2023/09/01 06:30:46;;;;;;;;;;;;;;;14.33;48.75;95216.31;4976545;28;19972;-67
2023/09/01 06:33:12;;;;;;;;;;;;;;;14.41;48.30;95220.63;4974844;28;19968;-67
2023/09/01 06:35:37;;;;;;;;;;;;;;;14.36;48.30;95217.75;4976580;28;19921;-66
2023/09/01 06:38:04;;;;;;;;;;;;;;;14.20;48.96;95220.69;4976859;28;20017;-68
2023/09/01 06:40:29;;;;;;;;;;;;;;;14.37;49.04;95214.84;4966673;28;19932;-67
2023/09/01 06:42:55;;;;;;;;;;;;;;;14.45;47.06;95211.94;4975056;28;19917;-67
2023/09/01 06:45:20;;;;;;;;;;;;;;;14.39;46.76;95203.94;4974675;28;19992;-66
2023/09/01 06:47:46;;;;;;;;;;;;;;;14.64;46.87;95211.22;4974443;28;20580;-67
2023/09/01 06:50:12;;;;;;;;;;;;;;;14.55;47.28;95205.31;4978966;28;19930;-67
2023/09/01 06:52:37;;;;;;;;;;;;;;;14.50;49.93;95219.34;4979735;28;20014;-67
2023/09/01 06:55:02;;;;;;;;;;;;;;;14.52;48.13;95209.22;4979813;28;20501;-67
2023/09/01 06:57:27;;;;;;;;;;;;;;;14.54;48.06;95206.31;4975030;28;20011;-66
2023/09/01 06:59:53;;;;;;;;;;;;;;;14.75;47.87;95217.81;4977701;28;20471;-69
2023/09/01 07:02:18;;;;;;;;;;;;;;;15.10;48.40;95220.88;4979564;28;20389;-69
2023/09/01 07:04:45;;;;;;;;;;;;;;;14.97;49.60;95219.13;4977863;28;20271;-69
2023/09/01 07:07:10;;;;;;;;;;;;;;;14.91;49.65;95228.03;4976181;28;19997;-68
2023/09/01 07:09:35;;;;;;;;;;;;;;;14.69;47.40;95222.13;4979498;28;19964;-68
2023/09/01 07:12:01;;;;;;;;;;;;;;;14.87;49.11;95240.22;4977420;28;19969;-69
2023/09/01 07:14:26;;;;;;;;;;;;;;;14.68;50.16;95242.75;4979846;28;19976;-69
2023/09/01 07:16:51;;;;;;;;;;;;;;;14.89;49.76;95243.47;4978923;28;20008;-70
2023/09/01 07:19:17;;;;;;;;;;;;;;;12.71;55.31;95257.22;4977896;28;19926;-69
2023/09/01 07:21:42;;;;;;;;;;;;;;;12.49;56.41;95259.19;4978724;28;20654;-69
2023/09/01 07:24:07;;;;;;;;;;;;;;;12.19;56.84;95248.78;4979312;28;20334;-69
2023/09/01 07:26:32;;;;;;;;;;;;;;;13.30;52.97;95236.19;4979056;28;20002;-69
2023/09/01 07:28:58;;;;;;;;;;;;;;;13.94;51.98;95237.63;4978511;28;19948;-69
2023/09/01 07:31:23;;;;;;;;;;;;;;;14.26;49.98;95229.72;4978355;28;19965;-69
2023/09/01 07:33:48;;;;;;;;;;;;;;;14.44;50.86;95226.34;4977850;28;19930;-70
2023/09/01 07:36:13;;;;;;;;;;;;;;;14.71;49.80;95226.25;4979159;28;20384;-70
2023/09/01 07:38:39;;;;;;;;;;;;;;;14.88;50.06;95231.13;4977279;28;20392;-69
2023/09/01 07:41:04;;;;;;;;;;;;;;;14.67;50.63;95229.56;4964783;28;19953;-69
2023/09/01 07:43:30;;;;;;;;;;;;;;;14.93;50.62;95235.84;4974150;28;20374;-69
2023/09/01 07:45:55;;;;;;;;;;;;;;;14.53;48.93;95239.50;4973493;28;19956;-68
2023/09/01 07:48:20;;;;;;;;;;;;;;;14.65;49.92;95245.84;4971978;28;20543;-68
2023/09/01 07:50:46;;;;;;;;;;;;;;;14.62;48.08;95237.41;4969879;28;20063;-68
2023/09/01 07:53:12;;;;;;;;;;;;;;;14.61;47.48;95239.25;4972423;28;19933;-68
2023/09/01 07:55:37;;;;;;;;;;;;;;;14.75;47.52;95236.56;4968811;28;19967;-69
2023/09/01 07:58:02;;;;;;;;;;;;;;;14.91;47.50;95246.78;4969813;28;19926;-69
2023/09/01 08:00:28;;;;;;;;;;;;;;;14.95;47.82;95244.47;4967763;28;20163;-68
2023/09/01 08:02:53;;;;;;;;;;;;;;;14.91;49.56;95251.31;4968900;28;20324;-68
2023/09/01 08:05:18;;;;;;;;;;;;;;;14.81;50.23;95254.44;4967656;28;20548;-69
2023/09/01 08:07:45;;;;;;;;;;;;;;;14.95;48.58;95257.88;4975719;28;20215;-68
2023/09/01 08:10:11;;;;;;;;;;;;;;;13.64;52.54;95268.31;4970270;28;19960;-68
2023/09/01 08:12:36;;;;;;;;;;;;;;;14.40;51.60;95268.00;4963611;28;20072;-69
2023/09/01 08:15:01;;;;;;;;;;;;;;;14.68;50.41;95261.50;4968784;28;21567;-68
2023/09/01 08:17:26;;;;;;;;;;;;;;;14.89;49.72;95264.13;4969883;28;19926;-68
2023/09/01 08:19:52;;;;;;;;;;;;;;;14.92;49.09;95259.13;4970812;28;20048;-68
2023/09/01 08:22:17;;;;;;;;;;;;;;;14.86;47.41;95260.00;4971811;28;20008;-68
2023/09/01 08:24:45;;;;;;;;;;;;;;;14.43;50.90;95270.25;4970387;28;19998;-68
2023/09/01 08:27:11;;;;;;;;;;;;;;;14.19;51.19;95275.25;4969501;28;20456;-68
2023/09/01 08:29:38;;;;;;;;;;;;;;;13.82;52.63;95272.19;4969629;28;19934;-68
2023/09/01 08:32:03;;;;;;;;;;;;;;;14.24;51.17;95284.53;4973158;28;19929;-68
2023/09/01 08:34:28;;;;;;;;;;;;;;;14.46;51.56;95293.91;4971539;28;19940;-68
2023/09/01 08:36:54;;;;;;;;;;;;;;;14.44;48.87;95285.28;4968126;28;20068;-68
2023/09/01 08:39:19;;;;;;;;;;;;;;;14.41;48.23;95268.81;4967785;28;19925;-68
2023/09/01 08:41:44;;;;;;;;;;;;;;;14.84;50.17;95284.34;4967015;28;19922;-68
2023/09/01 08:44:10;;;;;;;;;;;;;;;14.82;48.97;95274.88;4969592;28;19977;-68
2023/09/01 08:46:36;;;;;;;;;;;;;;;14.82;48.07;95278.34;4967861;28;20060;-68
2023/09/01 08:49:02;;;;;;;;;;;;;;;14.58;49.04;95288.72;4973833;28;20050;-68
2023/09/01 08:51:27;;;;;;;;;;;;;;;14.71;50.51;95285.19;4969109;28;19930;-68
2023/09/01 08:53:52;;;;;;;;;;;;;;;14.77;49.84;95285.38;4966312;28;19937;-67
2023/09/01 08:56:18;;;;;;;;;;;;;;;14.82;49.50;95288.28;4967437;28;19992;-68
2023/09/01 08:58:44;;;;;;;;;;;;;;;14.76;49.00;95286.44;4968984;28;20858;-68
2023/09/01 09:01:09;;;;;;;;;;;;;;;14.93;49.44;95290.25;4967550;28;21572;-68
2023/09/01 09:03:35;;;;;;;;;;;;;;;15.06;49.86;95285.88;4968096;28;20049;-68
2023/09/01 09:06:02;;;;;;;;;;;;;;;15.05;48.60;95292.25;4971754;28;20386;-68
2023/09/01 09:08:28;;;;;;;;;;;;;;;15.11;48.05;95294.09;4968322;28;20299;-68
2023/09/01 09:10:53;;;;;;;;;;;;;;;15.23;48.56;95288.88;4967070;28;19991;-68
2023/09/01 09:13:28;;;;;;;;;;;;;;;15.29;48.82;95289.84;4964037;28;20676;-68
2023/09/01 09:16:05;;;;;;;;;;;;;;;15.41;48.78;95281.94;4970948;28;19965;-68
2023/09/01 09:18:31;;;;;;;;;;;;;;;15.66;49.15;95295.41;4971112;28;19917;-68
2023/09/01 09:20:56;;;;;;;;;;;;;;;15.60;49.18;95291.72;4976210;28;19965;-68
2023/09/01 09:23:21;;;;;;;;;;;;;;;15.30;50.12;95303.03;4965190;28;19922;-69
2023/09/01 09:25:49;;;;;;;;;;;;;;;15.53;49.25;95296.28;4977459;28;20060;-69
2023/09/01 09:28:16;;;;;;;;;;;;;;;15.71;49.45;95303.63;4975254;28;19925;-69
2023/09/01 09:30:50;;;;;;;;;;;;;;;15.78;48.18;95294.69;4974244;28;19979;-68
2023/09/01 09:33:16;;;;;;;;;;;;;;;16.13;47.81;95304.91;4971317;28;19983;-69
2023/09/01 09:35:48;;;;;;;;;;;;;;;16.35;47.51;95301.84;4971771;28;19937;-68
2023/09/01 09:38:13;;;;;;;;;;;;;;;16.42;48.33;95299.09;4974935;28;20739;-68
2023/09/01 09:40:38;;;;;;;;;;;;;;;15.16;52.12;95304.19;4974427;28;20221;-69
2023/09/01 09:43:04;;;;;;;;;;;;;;;14.74;52.50;95297.34;4975828;28;19925;-69
2023/09/01 09:45:32;;;;;;;;;;;;;;;15.97;49.42;95296.38;4971028;28;19955;-70
2023/09/01 09:47:59;;;;;;;;;;;;;;;16.03;50.20;95300.06;4973739;28;19980;-69
2023/09/01 09:50:27;;;;;;;;;;;;;;;15.84;51.31;95305.38;4972862;28;20578;-69
2023/09/01 09:52:59;;;;;;;;;;;;;;;15.09;52.98;95296.16;4974451;28;19956;-69
2023/09/01 09:55:25;;;;;;;;;;;;;;;15.63;51.07;95303.88;4968537;28;20669;-69
2023/09/01 09:57:50;;;;;;;;;;;;;;;16.15;50.49;95305.53;4981707;28;19921;-69
2023/09/01 10:00:16;;;;;;;;;;;;;;;16.43;47.99;95296.19;4973610;28;19922;-69
2023/09/01 10:02:47;;;;;;;;;;;;;;;16.76;46.57;95292.28;4975175;28;19925;-69
2023/09/01 10:05:15;;;;;;;;;;;;;;;16.95;48.67;95289.56;4966194;28;19940;-69
2023/09/01 10:07:40;;;;;;;;;;;;;;;16.98;45.27;95289.13;4973673;28;19926;-69
2023/09/01 10:10:05;;;;;;;;;;;;;;;17.17;46.73;95297.19;4972836;28;19943;-69
2023/09/01 10:12:31;;;;;;;;;;;;;;;16.39;50.84;95292.31;4974995;28;20010;-69
2023/09/01 10:14:56;;;;;;;;;;;;;;;16.77;49.99;95282.38;4970471;28;20560;-69
2023/09/01 10:17:22;;;;;;;;;;;;;;;16.37;49.81;95289.00;4973904;28;20590;-69
2023/09/01 10:19:47;;;;;;;;;;;;;;;16.33;48.44;95277.03;4971958;28;20043;-69
2023/09/01 10:22:14;;;;;;;;;;;;;;;16.80;49.65;95278.41;4980518;28;19933;-69
2023/09/01 10:24:43;;;;;;;;;;;;;;;17.10;49.93;95281.09;4974659;28;20782;-69
2023/09/01 10:27:08;;;;;;;;;;;;;;;17.01;49.07;95283.31;4975870;28;20308;-69
2023/09/01 10:29:34;;;;;;;;;;;;;;;16.69;47.46;95275.41;4979006;28;20009;-67
2023/09/01 10:32:18;;;;;;;;;;;;;;;17.05;44.78;95277.44;4977966;28;19922;-67
2023/09/01 10:34:53;;;;;;;;;;;;;;;17.53;47.99;95279.28;4972434;28;19930;-67
2023/09/01 10:37:24;;;;;;;;;;;;;;;17.83;44.10;95271.34;4977018;28;19926;-66
2023/09/01 10:39:49;;;;;;;;;;;;;;;17.99;46.03;95276.09;4976160;28;19929;-67
2023/09/01 10:42:14;;;;;;;;;;;;;;;17.78;47.66;95275.56;4978479;28;19961;-66
2023/09/01 10:44:39;;;;;;;;;;;;;;;17.75;46.83;95275.22;4977030;28;20532;-67
2023/09/01 10:47:23;;;;;;;;;;;;;;;16.07;50.90;95277.09;4974927;28;19922;-67
2023/09/01 10:49:55;;;;;;;;;;;;;;;15.54;53.88;95279.16;4975164;28;20375;-67
2023/09/01 10:52:22;;;;;;;;;;;;;;;16.32;52.28;95286.94;4976881;28;19930;-67
2023/09/01 10:54:48;;;;;;;;;;;;;;;15.92;53.65;95287.34;4975232;28;19933;-67
2023/09/01 10:57:13;;;;;;;;;;;;;;;15.32;54.76;95268.78;4977018;28;19921;-66
2023/09/01 10:59:38;;;;;;;;;;;;;;;16.00;52.66;95265.59;4978186;28;19933;-67
2023/09/01 11:02:16;;;;;;;;;;;;;;;16.58;48.96;95262.72;4975436;28;19933;-67
2023/09/01 11:04:41;;;;;;;;;;;;;;;17.05;48.42;95258.63;4974452;28;20029;-68
2023/09/01 11:07:08;;;;;;;;;;;;;;;17.38;49.60;95262.75;4977022;28;20329;-67
2023/09/01 11:09:33;;;;;;;;;;;;;;;17.31;50.06;95256.63;4975648;28;20402;-68
2023/09/01 11:11:58;;;;;;;;;;;;;;;17.66;48.61;95259.41;4969097;28;19921;-67
2023/09/01 11:14:24;;;;;;;;;;;;;;;17.80;48.20;95257.31;4976931;28;19926;-67
2023/09/01 11:16:49;;;;;;;;;;;;;;;17.36;49.72;95264.81;4953279;28;19933;-66
2023/09/01 11:19:14;;;;;;;;;;;;;;;17.45;49.68;95262.63;4977769;28;19921;-67
2023/09/01 11:21:42;;;;;;;;;;;;;;;17.17;50.33;95266.78;4970085;28;19926;-67
2023/09/01 11:24:07;;;;;;;;;;;;;;;17.38;49.71;95265.44;4975974;28;19925;-67
2023/09/01 11:26:33;;;;;;;;;;;;;;;16.71;51.55;95273.34;4978091;28;20319;-67
2023/09/01 11:28:58;;;;;;;;;;;;;;;16.67;51.49;95265.94;4976047;28;19933;-67
2023/09/01 11:31:23;;;;;;;;;;;;;;;17.06;51.08;95265.66;4989016;28;19989;-67
2023/09/01 11:33:52;;;;;;;;;;;;;;;16.90;49.36;95259.88;4978203;28;19926;-67
2023/09/01 11:36:18;;;;;;;;;;;;;;;16.81;48.14;95262.03;4975528;28;19921;-68
2023/09/01 11:38:44;;;;;;;;;;;;;;;17.15;50.98;95257.06;4978386;28;19917;-68
2023/09/01 11:41:16;;;;;;;;;;;;;;;17.20;49.88;95261.75;4971994;28;19933;-69
2023/09/01 11:43:42;;;;;;;;;;;;;;;17.17;50.37;95256.00;4974997;28;20092;-68
2023/09/01 11:46:07;;;;;;;;;;;;;;;17.07;48.26;95259.22;4974038;28;20441;-69
2023/09/01 11:48:32;;;;;;;;;;;;;;;17.20;50.69;95260.94;4975185;28;19926;-70
2023/09/01 11:50:58;;;;;;;;;;;;;;;17.36;50.15;95262.13;4978135;28;20365;-68
2023/09/01 11:53:23;;;;;;;;;;;;;;;16.93;51.49;95264.75;4976891;28;19984;-68
2023/09/01 11:55:48;;;;;;;;;;;;;;;16.27;53.55;95268.00;4965155;28;20445;-69
2023/09/01 11:58:14;;;;;;;;;;;;;;;16.60;53.60;95263.34;4976298;28;19922;-69
2023/09/01 12:00:39;;;;;;;;;;;;;;;16.22;53.33;95257.13;4970165;28;19933;-69
2023/09/01 12:03:04;;;;;;;;;;;;;;;15.59;55.91;95262.44;4971692;28;19929;-69
2023/09/01 12:05:34;;;;;;;;;;;;;;;16.35;53.70;95267.75;4975018;28;20281;-69
2023/09/01 12:07:59;;;;;;;;;;;;;;;16.30;54.35;95258.69;4969465;28;19925;-69
2023/09/01 12:10:25;;;;;;;;;;;;;;;15.74;56.29;95262.13;4968536;28;19953;-68
2023/09/01 12:12:50;;;;;;;;;;;;;;;16.28;54.70;95255.41;4969659;28;19967;-69
2023/09/01 12:15:15;;;;;;;;;;;;;;;16.25;54.65;95267.44;4988709;28;19921;-69
2023/09/01 12:17:41;;;;;;;;;;;;;;;15.68;56.58;95271.88;4967637;28;20413;-69
2023/09/01 12:20:08;;;;;;;;;;;;;;;15.23;57.71;95284.31;4967495;28;20004;-68
2023/09/01 12:22:34;;;;;;;;;;;;;;;15.19;57.23;95277.75;4970264;28;19957;-69
2023/09/01 12:24:59;;;;;;;;;;;;;;;15.27;58.26;95278.53;4968195;28;19956;-69
2023/09/01 12:27:25;;;;;;;;;;;;;;;15.14;59.24;95282.94;4969427;28;20000;-69
2023/09/01 12:29:50;;;;;;;;;;;;;;;15.22;59.56;95274.63;4972409;28;19964;-70
2023/09/01 12:32:16;;;;;;;;;;;;;;;14.98;59.94;95279.72;4967050;28;19921;-69
2023/09/01 12:34:42;;;;;;;;;;;;;;;14.80;60.76;95275.09;4969845;28;19926;-69
2023/09/01 12:37:07;;;;;;;;;;;;;;;15.19;59.79;95285.78;4969228;28;19932;-70
2023/09/01 12:39:32;;;;;;;;;;;;;;;14.97;60.85;95280.78;4970124;28;19965;-69
2023/09/01 12:41:58;;;;;;;;;;;;;;;14.70;60.91;95286.22;4971650;28;20110;-69